createdAt,value
2018-03-23T00:01:44.964Z,23.40
2018-03-23T00:04:14.454Z,22.33
2018-03-23T00:06:42.642Z,24.35
2018-03-23T00:09:11.045Z,24.27
2018-03-23T00:11:41.712Z,22.15
2018-03-23T00:14:09.920Z,19.40
2018-03-23T00:16:39.050Z,19.15
2018-03-23T00:19:08.028Z,24.05
2018-03-23T00:21:38.019Z,21.52
2018-03-23T00:24:07.118Z,18.45
2018-03-23T00:26:35.271Z,20.90
2018-03-23T00:29:03.438Z,19.45
2018-03-23T00:31:31.612Z,24.25
2018-03-23T00:33:59.822Z,17.10
2018-03-23T00:36:27.993Z,20.48
2018-03-23T00:38:56.157Z,22.20
2018-03-23T00:41:24.330Z,21.98
2018-03-23T00:43:54.012Z,21.10
2018-03-23T00:46:22.232Z,16.02
2018-03-23T00:48:50.618Z,18.33
2018-03-23T00:51:18.769Z,19.20
2018-03-23T00:53:47.004Z,20.85
2018-03-23T00:56:15.167Z,19.92
2018-03-23T00:58:43.339Z,22.23
2018-03-23T01:01:11.504Z,18.62
2018-03-23T01:03:40.513Z,16.80
2018-03-23T01:06:08.683Z,18.58
2018-03-23T01:08:36.831Z,21.87
2018-03-23T01:11:04.980Z,18.77
2018-03-23T01:13:38.777Z,17.48
2018-03-23T01:16:06.955Z,17.17
2018-03-23T01:18:35.125Z,19.35
2018-03-23T01:21:04.039Z,19.10
2018-03-23T01:23:32.274Z,19.65
2018-03-23T01:26:00.466Z,16.42
2018-03-23T01:28:28.722Z,16.60
2018-03-23T01:30:56.900Z,18.20
2018-03-23T01:33:25.176Z,20.35
2018-03-23T01:35:53.337Z,16.62
2018-03-23T01:38:22.528Z,17.92
2018-03-23T01:40:51.474Z,19.87
2018-03-23T01:43:19.704Z,21.55
2018-03-23T01:45:47.880Z,16.50
2018-03-23T01:48:16.045Z,21.17
2018-03-23T01:50:44.210Z,17.50
2018-03-23T01:53:24.974Z,15.85
2018-03-23T01:55:53.140Z,19.62
2018-03-23T01:58:21.319Z,21.45
2018-03-23T02:00:50.242Z,19.70
2018-03-23T02:03:19.273Z,20.98
2018-03-23T02:05:47.409Z,19.80
2018-03-23T02:08:15.578Z,22.45
2018-03-23T02:10:43.728Z,20.62
2018-03-23T02:13:16.286Z,19.75
2018-03-23T02:15:49.841Z,17.77
2018-03-23T02:18:22.879Z,22.98
2018-03-23T02:20:55.183Z,22.83
2018-03-23T02:23:27.764Z,21.40
2018-03-23T02:25:55.930Z,20.58
2018-03-23T02:28:24.108Z,18.17
2018-03-23T02:30:52.282Z,20.60
2018-03-23T02:33:21.500Z,21.65
2018-03-23T02:35:49.724Z,18.62
2018-03-23T02:38:17.890Z,20.70
2018-03-23T02:40:46.127Z,21.62
2018-03-23T02:43:15.420Z,19.67
2018-03-23T02:45:43.571Z,21.48
2018-03-23T02:48:11.746Z,20.40
2018-03-23T02:50:39.900Z,18.77
2018-03-23T02:53:09.124Z,21.15
2018-03-23T02:55:37.301Z,22.48
2018-03-23T02:58:05.473Z,20.58
2018-03-23T03:00:34.489Z,20.00
2018-03-23T03:03:08.674Z,17.95
2018-03-23T03:05:37.700Z,17.40
2018-03-23T03:08:05.865Z,19.33
2018-03-23T03:10:34.035Z,22.15
2018-03-23T03:13:04.970Z,22.05
2018-03-23T03:15:33.610Z,19.52
2018-03-23T03:18:01.812Z,21.95
2018-03-23T03:20:29.974Z,22.62
2018-03-23T03:22:58.923Z,23.20
2018-03-23T03:25:27.078Z,22.05
2018-03-23T03:27:55.241Z,18.62
2018-03-23T03:30:23.417Z,20.88
2018-03-23T03:32:53.635Z,22.20
2018-03-23T03:35:21.789Z,22.73
2018-03-23T03:37:50.720Z,20.23
2018-03-23T03:40:18.897Z,18.92
2018-03-23T03:42:50.219Z,21.30
2018-03-23T03:45:23.851Z,23.83
2018-03-23T03:47:52.004Z,22.25
2018-03-23T03:50:20.182Z,19.98
2018-03-23T03:52:49.467Z,23.08
2018-03-23T03:55:17.664Z,25.58
2018-03-23T03:57:46.705Z,21.45
2018-03-23T04:00:14.860Z,20.70
2018-03-23T04:02:43.052Z,22.00
2018-03-23T04:05:11.239Z,17.77
2018-03-23T04:07:39.376Z,25.73
2018-03-23T04:10:07.531Z,20.92
2018-03-23T04:12:35.704Z,25.33
2018-03-23T04:15:03.855Z,20.77
2018-03-23T04:17:32.010Z,22.08
2018-03-23T04:20:00.177Z,23.67
2018-03-23T04:22:29.196Z,22.37
2018-03-23T04:24:57.352Z,23.85
2018-03-23T04:27:27.069Z,23.38
2018-03-23T04:29:55.997Z,19.98
2018-03-23T04:32:24.590Z,19.05
2018-03-23T04:37:33.653Z,23.33
2018-03-23T04:40:02.089Z,22.02
2018-03-23T04:42:30.690Z,21.10
2018-03-23T04:45:00.470Z,24.48
2018-03-23T04:47:28.632Z,21.90
2018-03-23T04:49:58.285Z,19.35
2018-03-23T04:52:26.534Z,22.20
2018-03-23T04:54:54.718Z,24.70
2018-03-23T04:57:23.352Z,20.92
2018-03-23T04:59:51.540Z,22.15
2018-03-23T05:02:22.950Z,27.48
2018-03-23T05:04:51.174Z,24.15
2018-03-23T05:07:19.557Z,27.98
2018-03-23T05:09:48.490Z,23.42
2018-03-23T05:12:21.439Z,23.10
2018-03-23T05:14:49.608Z,25.55
2018-03-23T05:17:19.158Z,23.23
2018-03-23T05:19:47.321Z,23.40
2018-03-23T05:22:15.494Z,23.60
2018-03-23T05:24:44.012Z,24.42
2018-03-23T05:27:12.197Z,27.77
2018-03-23T05:29:41.472Z,24.23
2018-03-23T05:32:11.338Z,19.40
2018-03-23T05:34:40.262Z,25.88
2018-03-23T05:37:10.123Z,22.77
2018-03-23T05:39:38.284Z,20.73
2018-03-23T05:42:06.455Z,20.52
2018-03-23T05:44:34.614Z,26.67
2018-03-23T05:47:02.804Z,22.35
2018-03-23T05:49:30.981Z,20.45
2018-03-23T05:52:00.100Z,23.25
2018-03-23T05:54:28.308Z,27.60
2018-03-23T05:56:56.480Z,22.52
2018-03-23T05:59:24.694Z,21.58
2018-03-23T06:01:52.855Z,18.58
2018-03-23T06:04:21.027Z,25.10
2018-03-23T06:06:49.203Z,20.73
2018-03-23T06:09:18.436Z,23.98
2018-03-23T06:11:46.601Z,22.65
2018-03-23T06:14:14.784Z,19.23
2018-03-23T06:16:42.962Z,20.02
2018-03-23T06:19:11.172Z,20.85
2018-03-23T06:21:39.417Z,22.00
2018-03-23T06:24:07.661Z,23.77
2018-03-23T06:26:35.878Z,25.85
2018-03-23T06:29:04.804Z,21.87
2018-03-23T06:31:32.987Z,25.05
2018-03-23T06:34:02.290Z,20.33
2018-03-23T06:36:30.462Z,19.20
2018-03-23T06:38:58.627Z,19.15
2018-03-23T06:41:26.835Z,21.52
2018-03-23T06:44:00.321Z,24.87
2018-03-23T06:46:28.485Z,19.50
2018-03-23T06:48:57.934Z,18.75
2018-03-23T06:51:26.091Z,19.80
2018-03-23T06:53:56.267Z,19.52
2018-03-23T06:56:24.434Z,16.00
2018-03-23T06:58:52.634Z,18.50
2018-03-23T07:01:20.800Z,19.10
2018-03-23T07:03:48.954Z,21.90
2018-03-23T07:06:17.124Z,24.27
2018-03-23T07:08:45.295Z,18.40
2018-03-23T07:11:13.462Z,14.25
2018-03-23T07:13:41.650Z,16.80
2018-03-23T07:16:09.848Z,18.30
2018-03-23T07:18:38.400Z,17.77
2018-03-23T07:21:06.574Z,14.52
2018-03-23T07:23:34.748Z,17.42
2018-03-23T07:26:02.922Z,16.65
2018-03-23T07:28:31.165Z,18.12
2018-03-23T07:31:00.109Z,20.20
2018-03-23T07:33:28.372Z,17.17
2018-03-23T07:35:56.537Z,18.08
2018-03-23T07:38:24.696Z,16.48
2018-03-23T07:40:53.642Z,21.77
2018-03-23T07:43:21.807Z,18.10
2018-03-23T07:45:50.033Z,18.35
2018-03-23T07:48:18.207Z,13.88
2018-03-23T07:50:48.122Z,19.48
2018-03-23T07:53:17.191Z,17.80
2018-03-23T07:55:45.359Z,21.33
2018-03-23T07:58:16.498Z,16.00
2018-03-23T08:00:44.660Z,19.73
2018-03-23T08:03:12.960Z,21.92
2018-03-23T08:05:41.140Z,19.25
2018-03-23T08:08:09.301Z,19.87
2018-03-23T08:10:37.987Z,15.30
2018-03-23T08:13:06.227Z,20.33
2018-03-23T08:15:34.418Z,14.93
2018-03-23T08:18:02.756Z,18.30
2018-03-23T08:20:31.229Z,15.35
2018-03-23T08:22:59.544Z,19.90
2018-03-23T08:25:27.725Z,18.87
2018-03-23T08:27:55.896Z,14.23
2018-03-23T08:30:24.042Z,16.40
2018-03-23T08:32:52.636Z,18.65
2018-03-23T08:35:20.811Z,15.88
2018-03-23T08:37:48.961Z,14.63
2018-03-23T08:40:17.907Z,11.55
2018-03-23T08:42:46.181Z,13.13
2018-03-23T08:45:14.353Z,14.30
2018-03-23T08:47:43.617Z,13.27
2018-03-23T08:50:12.416Z,16.80
2018-03-23T08:52:40.758Z,11.88
2018-03-23T08:55:12.068Z,13.73
2018-03-23T08:57:40.672Z,10.88
2018-03-23T09:00:10.810Z,11.12
2018-03-23T09:02:39.545Z,13.60
2018-03-23T09:05:07.705Z,9.82
2018-03-23T09:07:35.878Z,13.35
2018-03-23T09:10:04.523Z,11.20
2018-03-23T09:12:34.631Z,9.85
2018-03-23T09:15:03.087Z,9.07
2018-03-23T09:17:32.017Z,10.20
2018-03-23T09:20:01.414Z,10.15
2018-03-23T09:22:30.754Z,6.80
2018-03-23T09:25:00.471Z,7.68
2018-03-23T09:27:28.639Z,8.77
2018-03-23T09:29:57.824Z,5.97
2018-03-23T09:32:26.839Z,7.25
2018-03-23T09:34:56.510Z,7.12
2018-03-23T09:37:26.535Z,7.15
2018-03-23T09:39:55.684Z,5.20
2018-03-23T09:42:23.923Z,7.07
2018-03-23T09:44:52.130Z,6.57
2018-03-23T09:47:21.723Z,8.60
2018-03-23T09:49:52.021Z,5.50
2018-03-23T09:52:24.108Z,9.40
2018-03-23T09:54:53.569Z,9.68
2018-03-23T09:57:22.306Z,6.47
2018-03-23T09:59:50.968Z,8.10
2018-03-23T10:02:21.894Z,5.95
2018-03-23T10:04:50.411Z,8.73
2018-03-23T10:07:18.565Z,7.60
2018-03-23T10:09:48.030Z,8.95
2018-03-23T10:12:17.538Z,8.02
2018-03-23T10:14:46.382Z,7.37
2018-03-23T10:17:15.799Z,7.65
2018-03-23T10:19:44.053Z,7.35
2018-03-23T10:22:20.759Z,6.85
2018-03-23T10:24:48.943Z,6.37
2018-03-23T10:27:17.181Z,5.80
2018-03-23T10:29:45.498Z,5.93
2018-03-23T10:32:34.258Z,5.47
2018-03-23T10:35:04.611Z,6.75
2018-03-23T10:37:32.762Z,5.72
2018-03-23T10:40:00.907Z,6.18
2018-03-23T10:42:31.031Z,5.65
2018-03-23T10:44:59.417Z,5.20
2018-03-23T10:47:29.643Z,6.85
2018-03-23T10:50:06.658Z,6.00
2018-03-23T10:52:38.796Z,4.55
2018-03-23T10:55:06.944Z,4.75
2018-03-23T10:57:35.228Z,5.93
2018-03-23T11:00:04.975Z,4.60
2018-03-23T11:02:43.611Z,5.57
2018-03-23T11:05:11.801Z,5.32
2018-03-23T11:07:46.001Z,6.87
2018-03-23T11:10:14.198Z,5.87
2018-03-23T11:12:44.127Z,5.45
2018-03-23T11:15:12.535Z,6.18
2018-03-23T11:17:40.733Z,5.50
2018-03-23T11:20:09.553Z,5.35
2018-03-23T11:22:37.855Z,6.70
2018-03-23T11:25:06.333Z,7.32
2018-03-23T11:27:34.537Z,6.68
2018-03-23T11:30:02.696Z,8.13
2018-03-23T11:32:36.741Z,9.40
2018-03-23T11:35:06.521Z,5.15
2018-03-23T11:37:34.681Z,8.98
2018-03-23T11:40:05.093Z,6.55
2018-03-23T11:42:33.325Z,5.57
2018-03-23T11:45:01.502Z,5.35
2018-03-23T11:47:29.658Z,3.67
2018-03-23T11:49:57.839Z,3.78
2018-03-23T11:52:28.099Z,3.60
2018-03-23T11:54:56.650Z,3.15
2018-03-23T11:57:24.878Z,3.87
2018-03-23T11:59:53.026Z,4.75
2018-03-23T12:02:23.673Z,6.80
2018-03-23T12:04:51.841Z,6.62
2018-03-23T12:07:20.830Z,4.70
2018-03-23T12:09:49.054Z,4.40
2018-03-23T12:12:19.361Z,4.70
2018-03-23T12:14:47.513Z,4.00
2018-03-23T12:17:16.748Z,4.10
2018-03-23T12:19:44.901Z,3.20
2018-03-23T12:22:14.110Z,3.60
2018-03-23T12:24:42.270Z,4.18
2018-03-23T12:27:10.573Z,3.85
2018-03-23T12:29:39.563Z,4.28
2018-03-23T12:32:07.804Z,4.80
2018-03-23T12:34:35.952Z,5.30
2018-03-23T12:37:04.579Z,4.75
2018-03-23T12:39:32.761Z,5.75
2018-03-23T12:42:01.866Z,5.00
2018-03-23T12:44:30.086Z,2.30
2018-03-23T12:46:58.239Z,2.30
2018-03-23T12:49:26.423Z,2.70
2018-03-23T12:51:57.122Z,2.08
2018-03-23T12:54:25.258Z,2.87
2018-03-23T12:56:54.732Z,2.37
2018-03-23T12:59:22.899Z,1.80
2018-03-23T13:01:51.125Z,3.65
2018-03-23T13:04:20.199Z,2.42
2018-03-23T13:06:48.365Z,2.67
2018-03-23T13:09:16.541Z,3.00
2018-03-23T13:11:44.705Z,1.45
2018-03-23T13:14:12.874Z,2.45
2018-03-23T13:16:41.894Z,2.22
2018-03-23T13:19:11.801Z,2.15
2018-03-23T13:21:40.716Z,2.47
2018-03-23T13:24:08.873Z,2.20
2018-03-23T13:26:38.731Z,2.15
2018-03-23T13:29:06.940Z,2.35
2018-03-23T13:31:35.185Z,2.47
2018-03-23T13:34:03.389Z,2.62
2018-03-23T13:36:31.621Z,2.30
2018-03-23T13:38:59.792Z,2.25
2018-03-23T13:41:28.111Z,3.60
2018-03-23T13:43:57.235Z,5.43
2018-03-23T13:46:26.150Z,7.03
2018-03-23T13:48:54.566Z,4.53
2018-03-23T13:51:22.721Z,3.28
2018-03-23T13:53:51.119Z,3.00
2018-03-23T13:56:19.302Z,2.80
2018-03-23T13:58:53.879Z,2.70
2018-03-23T14:01:28.198Z,2.65
2018-03-23T14:03:57.655Z,4.32
2018-03-23T14:06:26.340Z,3.17
2018-03-23T14:08:54.661Z,1.85
2018-03-23T14:11:23.205Z,1.60
2018-03-23T14:13:51.356Z,1.70
2018-03-23T14:16:19.503Z,3.97
2018-03-23T14:18:48.024Z,1.55
2018-03-23T14:21:17.586Z,2.47
2018-03-23T14:23:46.346Z,1.33
2018-03-23T14:26:16.268Z,1.50
2018-03-23T14:28:44.416Z,1.60
2018-03-23T14:31:12.561Z,1.67
2018-03-23T14:33:40.823Z,4.40
2018-03-23T14:36:08.998Z,4.70
2018-03-23T14:38:37.169Z,2.72
2018-03-23T14:41:05.572Z,1.65
2018-03-23T14:43:33.736Z,2.28
2018-03-23T14:46:01.901Z,1.75
2018-03-23T14:48:30.048Z,1.30
2018-03-23T14:50:58.223Z,2.00
2018-03-23T14:53:26.430Z,1.70
2018-03-23T14:55:54.751Z,1.80
2018-03-23T14:58:22.964Z,1.58
2018-03-23T15:00:51.161Z,2.03
2018-03-23T15:03:20.656Z,2.08
2018-03-23T15:05:48.816Z,1.87
2018-03-23T15:08:16.972Z,2.10
2018-03-23T15:10:46.046Z,1.60
2018-03-23T15:13:14.242Z,2.67
2018-03-23T15:15:42.421Z,2.15
2018-03-23T15:18:10.586Z,2.15
2018-03-23T15:20:39.084Z,2.62
2018-03-23T15:23:09.380Z,2.50
2018-03-23T15:25:37.766Z,2.55
2018-03-23T15:28:06.842Z,1.62
2018-03-23T15:30:36.123Z,4.30
2018-03-23T15:33:06.227Z,4.45
2018-03-23T15:35:34.393Z,9.63
2018-03-23T15:38:03.457Z,4.03
2018-03-23T15:40:31.668Z,2.90
2018-03-23T15:42:59.930Z,3.50
2018-03-23T15:45:28.185Z,3.78
2018-03-23T15:47:56.382Z,3.30
2018-03-23T15:50:25.300Z,5.43
2018-03-23T15:52:56.435Z,3.60
2018-03-23T15:55:24.596Z,3.30
2018-03-23T15:57:53.218Z,3.70
2018-03-23T16:00:21.685Z,4.62
2018-03-23T16:02:49.890Z,3.05
2018-03-23T16:05:21.062Z,4.50
2018-03-23T16:07:49.226Z,3.92
2018-03-23T16:10:17.379Z,3.33
2018-03-23T16:12:46.197Z,5.07
2018-03-23T16:15:14.415Z,4.65
2018-03-23T16:17:42.620Z,4.37
2018-03-23T16:20:11.560Z,3.70
2018-03-23T16:22:44.232Z,3.58
2018-03-23T16:25:12.408Z,3.70
2018-03-23T16:27:41.011Z,6.22
2018-03-23T16:30:09.165Z,4.68
2018-03-23T16:32:37.342Z,5.15
2018-03-23T16:35:07.106Z,10.65
2018-03-23T16:37:35.254Z,6.15
2018-03-23T16:40:04.218Z,4.93
2018-03-23T16:42:36.031Z,4.60
2018-03-23T16:45:04.374Z,6.00
2018-03-23T16:47:32.634Z,5.72
2018-03-23T16:50:01.268Z,3.97
2018-03-23T16:52:39.174Z,6.55
2018-03-23T16:55:08.089Z,5.22
2018-03-23T16:57:36.316Z,5.32
2018-03-23T17:00:04.497Z,5.05
2018-03-23T17:02:32.657Z,7.97
2018-03-23T17:05:00.852Z,5.95
2018-03-23T17:07:29.008Z,6.97
2018-03-23T17:09:57.158Z,6.53
2018-03-23T17:12:29.243Z,5.95
2018-03-23T17:14:59.549Z,6.82
2018-03-23T17:17:29.104Z,6.47
2018-03-23T17:19:58.715Z,6.43
2018-03-23T17:22:28.892Z,6.55
2018-03-23T17:24:57.546Z,6.40
2018-03-23T17:27:25.714Z,7.57
2018-03-23T17:29:55.243Z,4.93
2018-03-23T17:32:28.347Z,5.60
2018-03-23T17:34:58.973Z,4.40
2018-03-23T17:37:29.985Z,5.12
2018-03-23T17:39:58.145Z,5.75
2018-03-23T17:42:32.694Z,7.62
2018-03-23T17:45:02.343Z,9.48
2018-03-23T17:47:33.288Z,10.10
2018-03-23T17:50:01.469Z,10.50
2018-03-23T17:52:35.796Z,10.43
2018-03-23T17:55:04.740Z,10.35
2018-03-23T17:57:34.540Z,7.37
2018-03-23T18:00:02.715Z,7.87
2018-03-23T18:02:31.205Z,5.25
2018-03-23T18:05:00.278Z,4.78
2018-03-23T18:07:34.091Z,8.40
2018-03-23T18:10:03.626Z,6.07
2018-03-23T18:12:31.887Z,5.70
2018-03-23T18:15:00.057Z,5.28
2018-03-23T18:17:30.719Z,5.47
2018-03-23T18:19:58.910Z,6.35
2018-03-23T18:22:33.131Z,3.45
2018-03-23T18:25:02.423Z,9.30
2018-03-23T18:27:31.888Z,4.78
2018-03-23T18:30:01.483Z,8.20
2018-03-23T18:32:30.786Z,5.37
2018-03-23T18:34:59.983Z,6.80
2018-03-23T18:37:28.218Z,6.18
2018-03-23T18:39:56.370Z,6.37
2018-03-23T18:42:25.536Z,4.40
2018-03-23T18:44:53.721Z,4.00
2018-03-23T18:47:22.764Z,5.22
2018-03-23T18:49:52.295Z,6.72
2018-03-23T18:52:28.083Z,4.78
2018-03-23T18:54:57.625Z,4.80
2018-03-23T18:57:25.766Z,4.57
2018-03-23T18:59:54.755Z,5.30
2018-03-23T19:02:26.260Z,5.75
2018-03-23T19:04:54.419Z,5.85
2018-03-23T19:07:22.895Z,16.52
2018-03-23T19:09:51.557Z,17.40
2018-03-23T19:12:19.779Z,6.62
2018-03-23T19:14:49.587Z,5.40
2018-03-23T19:17:18.548Z,4.95
2018-03-23T19:19:46.690Z,4.65
2018-03-23T19:22:17.086Z,4.97
2018-03-23T19:24:45.993Z,4.82
2018-03-23T19:27:14.177Z,6.95
2018-03-23T19:29:43.127Z,5.45
2018-03-23T19:32:12.140Z,4.45
2018-03-23T19:34:41.094Z,5.15
2018-03-23T19:37:09.242Z,4.87
2018-03-23T19:39:37.413Z,4.80
2018-03-23T19:42:06.782Z,4.72
2018-03-23T19:44:35.690Z,5.50
2018-03-23T19:47:03.892Z,7.12
2018-03-23T19:49:32.044Z,5.28
2018-03-23T19:52:00.198Z,5.47
2018-03-23T19:54:28.365Z,4.50
2018-03-23T19:56:58.063Z,5.57
2018-03-23T19:59:26.989Z,4.45
2018-03-23T20:01:56.208Z,8.82
2018-03-23T20:04:25.587Z,6.55
2018-03-23T20:06:53.775Z,6.40
2018-03-23T20:09:22.707Z,7.90
2018-03-23T20:11:50.883Z,7.87
2018-03-23T20:14:20.194Z,6.75
2018-03-23T20:16:50.841Z,6.97
2018-03-23T20:19:19.039Z,6.40
2018-03-23T20:21:47.777Z,6.25
2018-03-23T20:24:25.496Z,5.30
2018-03-23T20:26:53.966Z,6.22
2018-03-23T20:29:22.908Z,8.20
2018-03-23T20:31:56.979Z,7.37
2018-03-23T20:34:26.192Z,6.03
2018-03-23T20:36:55.244Z,5.85
2018-03-23T20:39:27.130Z,7.87
2018-03-23T20:41:55.293Z,10.55
2018-03-23T20:44:23.489Z,10.80
2018-03-23T20:46:51.694Z,7.87
2018-03-23T20:49:20.168Z,7.45
2018-03-23T20:51:48.960Z,12.50
2018-03-23T20:54:18.605Z,8.52
2018-03-23T20:56:46.780Z,8.30
2018-03-23T20:59:15.589Z,10.13
2018-03-23T21:01:44.584Z,12.23
2018-03-23T21:04:12.759Z,8.07
2018-03-23T21:06:41.020Z,9.90
2018-03-23T21:09:10.563Z,8.18
2018-03-23T21:11:38.765Z,10.88
2018-03-23T21:14:07.318Z,12.25
2018-03-23T21:16:35.521Z,13.05
2018-03-23T21:19:03.685Z,11.45
2018-03-23T21:21:31.903Z,13.38
2018-03-23T21:24:00.083Z,14.02
2018-03-23T21:26:28.254Z,14.15
2018-03-23T21:28:56.696Z,9.93
2018-03-23T21:31:25.591Z,11.65
2018-03-23T21:33:53.806Z,18.25
2018-03-23T21:36:24.538Z,16.10
2018-03-23T21:38:52.716Z,21.77
2018-03-23T21:41:20.876Z,16.17
2018-03-23T21:43:52.708Z,21.35
2018-03-23T21:46:20.864Z,19.45
2018-03-23T21:48:50.924Z,11.25
2018-03-23T21:51:19.089Z,13.52
2018-03-23T21:53:47.338Z,14.57
2018-03-23T21:56:16.314Z,19.20
2018-03-23T21:58:44.498Z,18.53
2018-03-23T22:01:12.696Z,15.75
2018-03-23T22:03:44.893Z,16.85
2018-03-23T22:06:13.064Z,14.18
2018-03-23T22:08:41.683Z,14.73
2018-03-23T22:11:10.709Z,18.15
2018-03-23T22:13:42.869Z,19.67
2018-03-23T22:16:14.422Z,21.33
2018-03-23T22:18:42.631Z,21.33
2018-03-23T22:21:14.015Z,20.17
2018-03-23T22:23:43.028Z,20.52
2018-03-23T22:26:12.244Z,20.35
2018-03-23T22:28:41.521Z,20.58
2018-03-23T22:31:09.705Z,24.20
2018-03-23T22:33:38.715Z,24.80
2018-03-23T22:36:07.289Z,19.10
2018-03-23T22:38:35.471Z,22.80
2018-03-23T22:41:06.975Z,20.15
2018-03-23T22:43:38.472Z,18.52
2018-03-23T22:46:12.783Z,25.45
2018-03-23T22:48:40.940Z,24.90
2018-03-23T22:51:10.915Z,24.75
2018-03-23T22:53:39.178Z,22.65
2018-03-23T22:56:07.359Z,26.48
2018-03-23T22:58:37.078Z,20.98
2018-03-23T23:01:05.537Z,21.70
2018-03-23T23:03:38.499Z,25.62
2018-03-23T23:06:07.737Z,23.38
2018-03-23T23:08:35.908Z,24.33
2018-03-23T23:11:10.670Z,24.60
2018-03-23T23:13:48.124Z,24.77
2018-03-23T23:16:16.366Z,23.98
2018-03-23T23:18:45.346Z,21.42
2018-03-23T23:21:15.388Z,28.73
2018-03-23T23:23:44.045Z,27.33
2018-03-23T23:26:13.189Z,34.33
2018-03-23T23:28:42.638Z,35.45
2018-03-23T23:31:10.994Z,32.05
2018-03-23T23:33:43.206Z,28.05
2018-03-23T23:36:11.428Z,31.48
2018-03-23T23:38:47.617Z,33.42
2018-03-23T23:41:16.597Z,38.65
2018-03-23T23:43:45.793Z,33.03
2018-03-23T23:46:16.054Z,31.37
2018-03-23T23:48:45.088Z,33.03
2018-03-23T23:51:13.276Z,37.17
2018-03-23T23:53:42.172Z,33.25
2018-03-23T23:56:11.287Z,34.25
2018-03-23T23:58:40.517Z,31.10
